Colstrip, MT

2:57 PM MST on February 28, 2015 (GMT -0700)
Water Plant | Change Station
CLOSE
Current Station
Personal Weather Station
Location: Colstrip, MT
Elevation: 3255 ft
Nearby Weather Stations

Elev 3255 ft 45.89 °N, 106.63 °W | Updated 3 minutes ago

Overcast
Overcast
20.3 °F
Feels Like 20 °F
N
3.0
Wind Variable Wind from West
Gusts 10.0 mph

Today
High -- | Low -- °F
--% Chance of Precip.
Yesterday
High -- | Low -- °F
Precip. -- in
6:47 AM 5:51 PM
Waxing Gibbous, 80% visible
Pressure 30.29 in
Visibility 10.0 miles
Clouds Overcast 3500 ft
Windchill 20 °F
Dew Point 11 °F
Humidity 66%
Rainfall 0.00 in
Snow Depth Not available.
UV 1 out of 12
Pollen .10 out of 12
Air Quality Not available.
Flu Activity Not available.
METAR KMLS 282053Z AUTO 32010KT 10SM OVC035 M06/M13 A3015 RMK AO2 SLP257 60000 T10561133 56013

More Conditions Fewer Conditions

Pressure 30.29 in
Visibility 10.0 miles
Clouds Overcast 3500 ft
Windchill 20 °F
Dew Point 11 °F
Humidity 66%
Rainfall 0.00 in
Snow Depth Not available.
UV 1 out of 12
Pollen .10 out of 12
Air Quality Not available.
Flu Activity Not available.
METAR KMLS 282053Z AUTO 32010KT 10SM OVC035 M06/M13 A3015 RMK AO2 SLP257 60000 T10561133 56013

More Conditions Fewer Conditions

10-Day Weather Forecast

Almanac

Astronomy

Feb. 28, 2015 Rise Set
Actual Time
Civil Twilight
Nautical Twilight
Astronomical Twilight
Moon
Length of Visible Light
Length of Day
Tomorrow will be .
, % of the Moon is Illuminated

Today's Extremes

State Highs State Lows

Community

WunderPhotos

Upload Photos

1,801,160 photos uploaded!

WunderBlogs® & News

Nearby

Air Quality

  Air Quality AQ Index Pollutant
Not available.

Snow Depth

Station Depth Elevation

Earthquake Activity

City Distance Mag. Time & Date
Minimum magnitude displayed is 2.5.

Coastal Water Temperatures

Place Temperature

Nearby Weather Stations